Time;durP1;ratioP1;P1;durP2;ratioP2;P2;SDS_P1;SDS_P2;PMS_P1;PMS_P2;Temp;Humidity;BMP_temperature;BMP_pressure;BME280_temperature;BME280_humidity;BME280_pressure;Samples;Min_cycle;Max_cycle;Signal;HPM_P1;HPM_P2
2023/05/10 00:00:17;;;;;;;14.43;7.13;;;12.70;99.90;;;;;;6109151;23;20558;-69
2023/05/10 00:02:43;;;;;;;13.40;6.27;;;12.70;99.90;;;;;;6106821;23;20494;-71
2023/05/10 00:05:09;;;;;;;9.37;5.07;;;12.70;99.90;;;;;;6058907;23;20466;-71
2023/05/10 00:07:34;;;;;;;7.07;3.87;;;12.70;99.90;;;;;;6109278;23;20357;-71
2023/05/10 00:10:00;;;;;;;11.47;5.07;;;12.70;99.90;;;;;;6107921;23;20466;-69
2023/05/10 00:12:26;;;;;;;13.13;5.00;;;12.70;99.90;;;;;;6107085;23;20151;-70
2023/05/10 00:14:51;;;;;;;6.10;3.70;;;12.70;99.90;;;;;;6109781;23;20528;-72
2023/05/10 00:17:17;;;;;;;8.93;4.30;;;12.70;99.90;;;;;;6110026;23;20541;-72
2023/05/10 00:19:42;;;;;;;11.80;5.57;;;12.70;99.90;;;;;;6110487;23;20170;-71
2023/05/10 00:22:10;;;;;;;16.87;7.00;;;12.70;99.90;;;;;;6110697;23;20175;-70
2023/05/10 00:24:35;;;;;;;13.23;5.37;;;12.70;99.90;;;;;;6087352;23;20144;-72
2023/05/10 00:27:03;;;;;;;10.00;4.73;;;12.60;99.90;;;;;;6092928;23;20369;-73
2023/05/10 00:29:29;;;;;;;8.53;4.50;;;12.70;99.90;;;;;;6062555;23;20192;-72
2023/05/10 00:31:56;;;;;;;12.67;4.63;;;12.70;99.90;;;;;;6086779;23;20361;-70
2023/05/10 00:34:21;;;;;;;10.03;3.83;;;12.70;99.90;;;;;;6110783;23;20137;-75
2023/05/10 00:36:47;;;;;;;7.70;3.90;;;12.70;99.90;;;;;;6106063;23;20460;-71
2023/05/10 00:39:13;;;;;;;7.90;3.50;;;12.70;99.90;;;;;;6100820;23;20184;-69
2023/05/10 00:41:38;;;;;;;12.40;4.50;;;12.80;99.90;;;;;;6100321;23;20159;-71
2023/05/10 00:44:06;;;;;;;7.17;3.70;;;12.80;99.90;;;;;;6075765;23;20284;-69
2023/05/10 00:46:31;;;;;;;6.60;3.30;;;12.80;99.90;;;;;;6101445;23;20365;-71
2023/05/10 00:48:58;;;;;;;8.53;3.67;;;12.80;99.90;;;;;;6075260;23;20232;-70
2023/05/10 00:51:24;;;;;;;6.13;3.07;;;12.80;99.90;;;;;;6101152;23;20375;-71
2023/05/10 00:53:51;;;;;;;6.20;2.83;;;12.80;99.90;;;;;;6101128;23;20403;-71
2023/05/10 00:56:17;;;;;;;6.00;2.73;;;12.80;99.90;;;;;;6101304;23;20380;-70
2023/05/10 00:58:43;;;;;;;6.57;2.60;;;12.90;99.90;;;;;;6098826;23;20792;-71
2023/05/10 01:01:10;;;;;;;7.37;2.80;;;12.90;99.90;;;;;;6102158;23;20220;-71
2023/05/10 01:03:36;;;;;;;9.47;4.17;;;12.90;99.90;;;;;;6102871;23;20441;-71
2023/05/10 01:06:03;;;;;;;8.13;3.00;;;12.90;99.90;;;;;;6103208;23;20400;-71
2023/05/10 01:08:28;;;;;;;9.40;3.83;;;12.80;99.90;;;;;;6103617;23;20368;-72
2023/05/10 01:10:55;;;;;;;8.80;3.67;;;12.90;99.90;;;;;;6102990;23;20451;-70
2023/05/10 01:13:33;;;;;;;8.40;2.97;;;12.90;99.90;;;;;;6102754;23;20357;-71
2023/05/10 01:16:01;;;;;;;6.87;2.70;;;12.90;99.90;;;;;;6107952;23;20428;-72
2023/05/10 01:18:29;;;;;;;5.90;3.07;;;12.90;99.90;;;;;;6077315;23;20463;-70
2023/05/10 01:21:19;;;;;;;7.73;3.37;;;12.90;99.90;;;;;;6101088;23;20400;-70
2023/05/10 01:24:09;;;;;;;7.70;2.70;;;12.90;99.90;;;;;;6101136;23;20413;-70
2023/05/10 01:27:09;;;;;;;8.37;3.23;;;12.90;99.90;;;;;;6100895;23;20377;-70
2023/05/10 01:29:53;;;;;;;6.50;2.80;;;12.90;99.90;;;;;;6103762;23;20412;-71
2023/05/10 01:32:34;;;;;;;5.20;2.43;;;12.90;99.90;;;;;;6101783;23;20499;-69
2023/05/10 01:35:06;;;;;;;6.90;2.67;;;12.90;99.90;;;;;;6101396;23;20365;-72
2023/05/10 01:37:51;;;;;;;6.23;3.03;;;12.90;99.90;;;;;;6076119;23;20404;-70
2023/05/10 01:40:30;;;;;;;7.80;2.90;;;12.90;99.90;;;;;;6075570;23;20971;-71
2023/05/10 01:43:01;;;;;;;5.43;2.60;;;12.90;99.90;;;;;;6102392;23;20405;-69
2023/05/10 01:45:51;;;;;;;5.33;2.37;;;12.90;99.90;;;;;;6076444;23;20415;-71
2023/05/10 01:48:19;;;;;;;6.50;2.57;;;12.90;99.90;;;;;;6075316;23;20395;-70
2023/05/10 01:50:47;;;;;;;5.07;2.30;;;12.90;99.90;;;;;;6100536;23;20399;-71
2023/05/10 01:53:17;;;;;;;13.20;5.17;;;12.90;99.90;;;;;;6100701;23;20374;-70
2023/05/10 01:55:52;;;;;;;20.90;7.63;;;12.90;99.90;;;;;;6100580;23;20447;-71
2023/05/10 01:58:40;;;;;;;22.67;9.40;;;12.90;99.90;;;;;;6073978;23;20387;-71
2023/05/10 02:01:08;;;;;;;22.60;9.07;;;12.80;99.90;;;;;;6098633;23;20376;-71
2023/05/10 02:03:36;;;;;;;19.00;7.90;;;12.80;99.90;;;;;;6074407;23;20435;-71
2023/05/10 02:06:04;;;;;;;23.53;9.47;;;12.80;99.90;;;;;;6098958;23;20455;-68
2023/05/10 02:08:32;;;;;;;23.93;8.67;;;12.80;99.90;;;;;;6099964;23;20371;-72
2023/05/10 02:10:59;;;;;;;17.43;8.17;;;12.80;99.90;;;;;;6101742;23;20380;-71
2023/05/10 02:13:26;;;;;;;17.93;8.40;;;12.80;99.90;;;;;;6101730;23;20365;-70
2023/05/10 02:15:54;;;;;;;22.03;9.30;;;12.80;99.90;;;;;;6075688;23;20747;-71
2023/05/10 02:18:20;;;;;;;28.93;9.90;;;12.80;99.90;;;;;;6100742;23;20885;-72
2023/05/10 02:20:47;;;;;;;25.90;10.00;;;12.80;99.90;;;;;;6100320;23;20487;-70
2023/05/10 02:23:17;;;;;;;29.70;10.10;;;12.70;99.90;;;;;;6098997;23;20408;-72
2023/05/10 02:25:45;;;;;;;31.37;10.87;;;12.70;99.90;;;;;;6100732;23;20387;-71
2023/05/10 02:28:12;;;;;;;28.13;10.67;;;12.70;99.90;;;;;;6101417;23;20372;-71
2023/05/10 02:30:38;;;;;;;27.00;9.77;;;12.70;99.90;;;;;;6075756;23;20400;-72
2023/05/10 02:33:05;;;;;;;23.13;9.63;;;12.60;99.90;;;;;;6104821;23;20381;-71
2023/05/10 02:35:33;;;;;;;24.70;9.47;;;12.60;99.90;;;;;;6105368;23;20365;-71
2023/05/10 02:37:59;;;;;;;19.13;8.17;;;12.60;99.90;;;;;;6100519;23;20385;-72
2023/05/10 02:40:27;;;;;;;21.20;7.60;;;12.60;99.90;;;;;;6099845;23;20814;-71
2023/05/10 02:42:56;;;;;;;15.97;6.20;;;12.50;99.90;;;;;;6073961;23;20698;-71
2023/05/10 02:45:26;;;;;;;13.53;5.70;;;12.60;99.90;;;;;;6099279;23;20357;-71
2023/05/10 02:47:52;;;;;;;11.40;5.40;;;12.60;99.90;;;;;;6074273;23;20365;-70
2023/05/10 02:50:18;;;;;;;11.67;4.90;;;12.60;99.90;;;;;;6100966;23;20710;-71
2023/05/10 02:52:51;;;;;;;7.70;3.70;;;12.60;99.90;;;;;;6074777;23;20754;-70
2023/05/10 02:55:22;;;;;;;13.13;5.70;;;12.60;99.90;;;;;;6099182;23;20364;-70
2023/05/10 02:57:59;;;;;;;9.07;5.20;;;12.60;99.90;;;;;;6073682;23;20384;-70
2023/05/10 03:00:25;;;;;;;9.13;4.20;;;12.50;99.90;;;;;;6097346;23;20492;-70
2023/05/10 03:02:51;;;;;;;6.90;3.77;;;12.50;99.90;;;;;;6101895;23;20420;-70
2023/05/10 03:05:17;;;;;;;9.40;4.00;;;12.50;99.90;;;;;;6079119;23;20423;-71
2023/05/10 03:07:44;;;;;;;8.70;4.50;;;12.50;99.90;;;;;;6077294;23;20376;-71
2023/05/10 03:10:10;;;;;;;10.27;4.57;;;12.50;99.90;;;;;;6097513;23;20176;-71
2023/05/10 03:13:04;;;;;;;10.00;4.53;;;12.50;99.90;;;;;;6097471;23;20625;-71
2023/05/10 03:15:37;;;;;;;12.30;6.40;;;12.40;99.90;;;;;;6099150;23;20361;-71
2023/05/10 03:18:10;;;;;;;13.33;6.50;;;12.40;99.90;;;;;;6099424;23;20369;-71
2023/05/10 03:20:42;;;;;;;11.90;5.50;;;12.40;99.90;;;;;;6097811;23;20672;-70
2023/05/10 03:23:16;;;;;;;12.50;4.70;;;12.40;99.90;;;;;;6076866;23;20480;-70
2023/05/10 03:25:43;;;;;;;12.27;4.90;;;12.40;99.90;;;;;;6100175;23;20383;-71
2023/05/10 03:28:12;;;;;;;9.63;4.73;;;12.40;99.90;;;;;;6100981;23;20376;-70
2023/05/10 03:30:38;;;;;;;8.10;4.10;;;12.40;99.90;;;;;;6101747;23;20388;-74
2023/05/10 03:33:07;;;;;;;8.77;4.57;;;12.40;99.90;;;;;;6100007;23;20400;-73
2023/05/10 03:35:36;;;;;;;11.43;4.87;;;12.50;99.90;;;;;;6078542;23;20397;-71
2023/05/10 03:38:02;;;;;;;9.47;4.50;;;12.50;99.90;;;;;;6100636;23;20372;-71
2023/05/10 03:40:31;;;;;;;12.83;5.90;;;12.50;99.90;;;;;;6074781;23;20396;-70
2023/05/10 03:42:58;;;;;;;13.33;6.07;;;12.50;99.90;;;;;;6074834;23;20183;-71
2023/05/10 03:45:23;;;;;;;19.43;6.50;;;12.50;99.90;;;;;;6075938;23;20446;-70
2023/05/10 03:47:49;;;;;;;13.43;5.50;;;12.50;99.90;;;;;;6074638;23;20645;-71
2023/05/10 03:50:15;;;;;;;12.00;4.67;;;12.50;99.90;;;;;;6074736;23;20494;-70
2023/05/10 03:52:41;;;;;;;20.87;6.30;;;12.60;99.90;;;;;;6075464;23;20172;-71
2023/05/10 03:55:07;;;;;;;9.67;4.27;;;12.60;99.90;;;;;;6101697;23;20148;-70
2023/05/10 03:57:33;;;;;;;16.13;5.27;;;12.70;99.90;;;;;;6102929;23;20160;-70
2023/05/10 03:59:59;;;;;;;20.60;6.97;;;12.70;99.90;;;;;;6106837;23;20396;-71
2023/05/10 04:02:25;;;;;;;13.50;5.17;;;12.70;99.90;;;;;;6103803;23;20467;-71
2023/05/10 04:04:51;;;;;;;11.20;4.70;;;12.70;99.90;;;;;;6079656;23;20424;-71
2023/05/10 04:07:18;;;;;;;9.50;4.93;;;12.70;99.90;;;;;;6107321;23;20141;-71
2023/05/10 04:09:43;;;;;;;15.80;5.90;;;12.70;99.90;;;;;;6079001;23;20168;-73
2023/05/10 04:12:09;;;;;;;10.23;4.93;;;12.70;99.90;;;;;;6106627;23;20357;-76
2023/05/10 04:14:35;;;;;;;11.37;4.77;;;12.70;99.90;;;;;;6108980;23;20631;-71
2023/05/10 04:17:00;;;;;;;8.10;3.50;;;12.70;99.90;;;;;;6084386;23;20385;-73
2023/05/10 04:19:30;;;;;;;11.60;4.60;;;12.80;99.90;;;;;;6108787;23;20168;-72
2023/05/10 04:21:56;;;;;;;12.33;4.73;;;12.80;99.90;;;;;;6108465;23;20177;-71
2023/05/10 04:24:21;;;;;;;16.40;7.37;;;12.80;99.90;;;;;;6107459;23;20427;-69
2023/05/10 04:26:47;;;;;;;17.20;8.30;;;12.80;99.90;;;;;;6106018;23;20129;-74
2023/05/10 04:29:12;;;;;;;23.30;10.43;;;12.80;99.90;;;;;;6106902;23;20168;-71
2023/05/10 04:31:38;;;;;;;25.37;9.40;;;12.80;99.90;;;;;;6101578;23;20156;-70
2023/05/10 04:34:04;;;;;;;20.80;8.03;;;12.70;99.90;;;;;;6100289;23;20303;-71
2023/05/10 04:36:29;;;;;;;18.97;6.63;;;12.70;99.90;;;;;;6100288;23;20145;-71
2023/05/10 04:38:55;;;;;;;32.00;11.63;;;12.80;99.90;;;;;;6100153;23;20148;-70
2023/05/10 04:41:20;;;;;;;29.20;12.17;;;12.70;99.90;;;;;;6105783;23;20141;-72
2023/05/10 04:43:48;;;;;;;31.33;12.90;;;12.70;99.90;;;;;;6107294;23;20172;-73
2023/05/10 04:46:15;;;;;;;42.07;14.90;;;12.70;99.90;;;;;;6107857;23;20133;-72
2023/05/10 04:48:41;;;;;;;35.73;14.27;;;12.60;99.90;;;;;;6108398;23;20397;-73
2023/05/10 04:51:06;;;;;;;47.20;16.90;;;12.60;99.90;;;;;;6106755;23;20137;-71
2023/05/10 04:53:32;;;;;;;35.23;13.97;;;12.60;99.90;;;;;;6105687;23;20149;-72
2023/05/10 04:55:58;;;;;;;43.27;15.50;;;12.60;99.90;;;;;;6106094;23;20145;-72
2023/05/10 04:58:23;;;;;;;36.13;13.80;;;12.60;99.90;;;;;;6106940;23;20141;-72
2023/05/10 05:00:49;;;;;;;41.13;14.90;;;12.60;99.90;;;;;;6106337;23;20231;-71
2023/05/10 05:03:14;;;;;;;38.43;15.60;;;12.70;99.90;;;;;;6106652;23;20216;-73
2023/05/10 05:05:40;;;;;;;57.70;19.17;;;12.70;99.90;;;;;;6080531;23;20151;-73
2023/05/10 05:08:06;;;;;;;78.83;24.10;;;12.70;99.90;;;;;;6107290;23;20211;-72
2023/05/10 05:10:31;;;;;;;73.03;22.00;;;12.70;99.90;;;;;;6082831;23;20164;-74
2023/05/10 05:12:57;;;;;;;48.30;18.73;;;12.70;99.90;;;;;;6105749;23;20145;-75
2023/05/10 05:15:23;;;;;;;68.13;21.07;;;12.70;99.90;;;;;;6106997;23;20281;-73
2023/05/10 05:17:48;;;;;;;50.60;18.70;;;12.80;99.90;;;;;;6107233;23;20137;-72
2023/05/10 05:20:14;;;;;;;45.30;15.80;;;12.80;99.90;;;;;;6080536;23;20184;-72
2023/05/10 05:22:40;;;;;;;35.33;13.20;;;12.80;99.90;;;;;;6083260;23;20184;-75
2023/05/10 05:25:06;;;;;;;27.30;12.50;;;12.80;99.90;;;;;;6084592;23;20212;-75
2023/05/10 05:27:32;;;;;;;44.50;19.17;;;12.80;99.90;;;;;;6082389;23;20137;-73
2023/05/10 05:29:58;;;;;;;28.83;13.60;;;12.80;99.90;;;;;;6082676;23;20861;-73
2023/05/10 05:32:24;;;;;;;36.00;14.40;;;12.80;99.90;;;;;;6106698;23;20206;-71
2023/05/10 05:34:50;;;;;;;38.17;15.17;;;12.70;99.90;;;;;;6082981;23;20408;-73
2023/05/10 05:37:21;;;;;;;32.93;13.23;;;12.70;99.90;;;;;;6109596;23;20377;-71
2023/05/10 05:39:47;;;;;;;36.90;14.40;;;12.70;99.90;;;;;;6107860;23;20456;-73
2023/05/10 05:42:14;;;;;;;41.63;15.10;;;12.70;99.90;;;;;;6109568;23;20412;-76
2023/05/10 05:44:40;;;;;;;29.87;13.97;;;12.70;99.90;;;;;;6114581;23;20365;-73
2023/05/10 05:47:06;;;;;;;35.40;14.17;;;12.80;99.90;;;;;;6109684;23;20395;-74
2023/05/10 05:49:32;;;;;;;30.63;12.00;;;12.80;99.90;;;;;;6107356;23;20167;-75
2023/05/10 05:52:02;;;;;;;38.70;14.03;;;12.80;99.90;;;;;;6081364;23;20384;-75
2023/05/10 05:54:28;;;;;;;46.17;15.53;;;12.70;99.90;;;;;;6108791;23;20368;-73
2023/05/10 05:56:58;;;;;;;61.33;18.40;;;12.70;99.90;;;;;;6034568;23;20432;-75
2023/05/10 05:59:24;;;;;;;34.37;13.40;;;12.80;99.90;;;;;;6089498;23;20391;-75
2023/05/10 06:01:49;;;;;;;35.33;11.40;;;12.80;99.90;;;;;;6110098;23;20372;-75
2023/05/10 06:04:16;;;;;;;65.07;16.90;;;12.90;99.90;;;;;;6109037;23;20432;-74
2023/05/10 06:06:42;;;;;;;30.97;10.67;;;13.00;99.90;;;;;;6085682;23;20212;-73
2023/05/10 06:09:08;;;;;;;36.40;14.23;;;13.10;99.90;;;;;;6108211;23;20400;-74
2023/05/10 06:11:34;;;;;;;30.03;12.43;;;13.00;99.90;;;;;;6110029;23;20380;-76
2023/05/10 06:14:00;;;;;;;27.90;12.33;;;12.90;99.90;;;;;;6107896;23;20372;-71
2023/05/10 06:16:26;;;;;;;26.23;11.73;;;12.90;99.90;;;;;;6108701;23;20425;-75
2023/05/10 06:18:51;;;;;;;40.43;12.83;;;12.90;99.90;;;;;;6107363;23;20372;-73
2023/05/10 06:21:17;;;;;;;29.80;11.97;;;12.90;99.90;;;;;;6109223;23;20141;-77
2023/05/10 06:23:43;;;;;;;28.50;11.37;;;12.90;99.90;;;;;;6083754;23;20164;-72
2023/05/10 06:26:09;;;;;;;26.80;12.13;;;13.00;99.90;;;;;;6111209;23;20176;-76
2023/05/10 06:28:37;;;;;;;30.97;10.70;;;12.90;99.90;;;;;;6066628;23;20376;-74
2023/05/10 06:31:03;;;;;;;22.47;9.57;;;12.90;99.90;;;;;;6114895;23;20392;-75
2023/05/10 06:33:29;;;;;;;22.43;10.43;;;12.90;99.90;;;;;;6088511;23;20404;-73
2023/05/10 06:35:55;;;;;;;37.50;13.20;;;12.90;99.90;;;;;;6085855;23;20365;-76
2023/05/10 06:38:20;;;;;;;28.27;13.57;;;13.00;99.90;;;;;;6083600;23;20152;-74
2023/05/10 06:40:46;;;;;;;49.00;16.60;;;13.00;99.90;;;;;;6107260;23;20164;-72
2023/05/10 06:43:11;;;;;;;54.33;19.57;;;12.90;99.90;;;;;;6109884;23;20164;-74
2023/05/10 06:45:39;;;;;;;40.10;15.30;;;12.90;99.90;;;;;;6111430;23;20522;-76
2023/05/10 06:48:04;;;;;;;41.97;18.17;;;12.90;99.90;;;;;;6113563;23;20136;-75
2023/05/10 06:50:30;;;;;;;36.90;15.33;;;12.90;99.90;;;;;;6084696;23;20393;-76
2023/05/10 06:52:56;;;;;;;36.20;14.30;;;12.80;99.90;;;;;;6087527;23;20155;-76
2023/05/10 06:55:22;;;;;;;51.77;18.87;;;12.80;99.90;;;;;;6117558;23;20384;-76
2023/05/10 06:57:47;;;;;;;45.03;18.23;;;12.80;99.90;;;;;;6115869;23;20148;-76
2023/05/10 07:00:14;;;;;;;40.43;15.90;;;12.70;99.90;;;;;;6089912;23;20467;-76
2023/05/10 07:02:39;;;;;;;44.47;15.33;;;12.70;99.90;;;;;;6066100;23;20188;-74
2023/05/10 07:05:06;;;;;;;60.23;16.53;;;12.70;99.90;;;;;;6114687;23;20416;-75
2023/05/10 07:07:31;;;;;;;40.50;15.23;;;12.70;99.90;;;;;;6112446;23;20184;-73
2023/05/10 07:09:57;;;;;;;38.13;13.73;;;12.70;99.90;;;;;;6086016;23;20407;-74
2023/05/10 07:12:23;;;;;;;50.83;17.63;;;12.80;99.90;;;;;;6083810;23;20153;-75
2023/05/10 07:14:49;;;;;;;45.90;16.10;;;12.80;99.90;;;;;;6110449;23;20399;-74
2023/05/10 07:17:15;;;;;;;45.57;13.63;;;12.90;99.90;;;;;;6085652;23;20384;-74
2023/05/10 07:19:41;;;;;;;76.47;20.10;;;13.00;99.90;;;;;;6059428;23;20182;-74
2023/05/10 07:22:06;;;;;;;74.93;22.77;;;13.00;99.90;;;;;;6107841;23;20180;-73
2023/05/10 07:24:33;;;;;;;52.97;17.17;;;13.10;99.90;;;;;;6085863;23;20180;-77
2023/05/10 07:26:59;;;;;;;39.77;14.90;;;13.20;99.90;;;;;;6089206;23;20459;-73
2023/05/10 07:29:24;;;;;;;38.83;12.60;;;13.30;99.90;;;;;;6090093;23;20480;-76
2023/05/10 07:31:50;;;;;;;26.87;10.93;;;13.40;99.90;;;;;;6114646;23;20137;-73
2023/05/10 07:34:16;;;;;;;28.00;12.53;;;13.50;99.90;;;;;;6089238;23;20153;-75
2023/05/10 07:36:41;;;;;;;28.10;12.80;;;13.50;99.90;;;;;;6112129;23;20168;-75
2023/05/10 07:39:07;;;;;;;22.17;9.03;;;13.40;99.90;;;;;;6114238;23;20175;-77
2023/05/10 07:41:33;;;;;;;26.33;11.53;;;13.30;99.90;;;;;;6113828;23;20171;-75
2023/05/10 07:43:58;;;;;;;31.53;12.23;;;13.30;99.90;;;;;;6088498;23;20168;-78
2023/05/10 07:46:31;;;;;;;47.27;15.07;;;13.30;99.90;;;;;;6113030;23;20137;-76
2023/05/10 07:48:57;;;;;;;35.43;16.27;;;13.30;99.90;;;;;;6090598;23;20122;-76
2023/05/10 07:51:23;;;;;;;38.67;14.20;;;13.30;99.90;;;;;;6091012;23;20384;-77
2023/05/10 07:53:49;;;;;;;27.10;11.57;;;13.40;99.90;;;;;;6092003;23;20141;-76
2023/05/10 07:56:29;;;;;;;45.60;14.20;;;13.40;99.90;;;;;;6117679;23;20214;-76
2023/05/10 07:59:06;;;;;;;62.63;21.00;;;13.50;99.90;;;;;;6090416;23;20384;-76
2023/05/10 08:01:33;;;;;;;54.00;18.93;;;13.40;99.90;;;;;;6090833;23;20384;-77
2023/05/10 08:03:59;;;;;;;60.07;23.40;;;13.50;99.90;;;;;;6087267;23;20436;-75
2023/05/10 08:06:29;;;;;;;46.33;18.67;;;13.60;99.90;;;;;;6091516;23;20377;-76
2023/05/10 08:08:55;;;;;;;65.43;21.50;;;13.50;99.90;;;;;;6112823;23;20365;-73
2023/05/10 08:11:21;;;;;;;59.37;19.60;;;13.50;99.90;;;;;;6114270;23;20368;-76
2023/05/10 08:13:48;;;;;;;67.10;22.30;;;13.60;99.90;;;;;;6118034;23;20445;-76
2023/05/10 08:16:15;;;;;;;57.07;21.33;;;13.70;99.90;;;;;;6089631;23;20388;-77
2023/05/10 08:18:41;;;;;;;57.07;21.27;;;13.60;99.90;;;;;;6089019;23;20385;-75
2023/05/10 08:21:07;;;;;;;52.03;20.97;;;13.60;99.90;;;;;;6088269;23;20374;-74
2023/05/10 08:23:32;;;;;;;45.27;17.57;;;13.70;99.90;;;;;;6089016;23;20181;-75
2023/05/10 08:25:58;;;;;;;33.90;13.80;;;13.80;99.90;;;;;;6115924;23;20798;-74
2023/05/10 08:28:24;;;;;;;30.50;12.67;;;13.80;99.90;;;;;;6113922;23;20125;-75
2023/05/10 08:30:50;;;;;;;35.83;15.70;;;14.00;99.90;;;;;;6066458;23;20401;-75
2023/05/10 08:33:17;;;;;;;29.77;13.27;;;14.00;99.90;;;;;;6091009;23;20407;-74
2023/05/10 08:35:43;;;;;;;32.27;12.77;;;13.90;99.90;;;;;;6065537;23;20386;-75
2023/05/10 08:38:09;;;;;;;28.20;12.20;;;13.60;99.90;;;;;;6090987;23;20429;-76
2023/05/10 08:40:36;;;;;;;34.90;16.63;;;13.60;99.90;;;;;;6112732;23;20164;-76
2023/05/10 08:43:07;;;;;;;36.47;16.20;;;13.60;99.90;;;;;;6089740;23;20176;-74
2023/05/10 08:45:41;;;;;;;35.17;14.37;;;13.50;99.90;;;;;;6119720;23;20356;-76
2023/05/10 08:48:08;;;;;;;32.43;14.77;;;13.50;99.90;;;;;;6088870;23;20406;-75
2023/05/10 08:50:38;;;;;;;47.60;17.43;;;13.60;99.90;;;;;;6085253;23;20542;-75
2023/05/10 08:53:06;;;;;;;37.50;14.93;;;13.70;99.90;;;;;;6085140;23;20643;-74
2023/05/10 08:55:33;;;;;;;52.30;16.50;;;13.80;99.90;;;;;;6114109;23;20377;-74
2023/05/10 08:57:59;;;;;;;29.93;12.70;;;13.90;99.90;;;;;;6064055;23;20415;-76
2023/05/10 09:00:28;;;;;;;41.00;15.10;;;14.00;99.90;;;;;;6114164;23;20397;-73
2023/05/10 09:02:53;;;;;;;36.77;15.13;;;14.00;99.90;;;;;;6087232;23;20796;-76
2023/05/10 09:05:19;;;;;;;29.70;12.37;;;13.90;99.90;;;;;;6087081;23;20383;-76
2023/05/10 09:07:45;;;;;;;37.67;16.00;;;13.90;99.90;;;;;;6112570;23;20404;-76
2023/05/10 09:10:13;;;;;;;41.87;15.57;;;14.10;99.90;;;;;;6113031;23;20216;-75
2023/05/10 09:12:38;;;;;;;39.67;15.20;;;14.10;99.90;;;;;;6087739;23;20154;-75
2023/05/10 09:15:06;;;;;;;32.40;14.50;;;14.20;99.90;;;;;;6088467;23;20378;-76
2023/05/10 09:17:33;;;;;;;28.50;15.20;;;14.30;99.90;;;;;;6090034;23;20249;-75
2023/05/10 09:20:00;;;;;;;26.13;12.63;;;14.20;99.90;;;;;;6112492;23;20394;-74
2023/05/10 09:22:26;;;;;;;39.10;14.40;;;14.20;99.90;;;;;;6068661;23;20440;-76
2023/05/10 09:25:05;;;;;;;25.17;12.37;;;14.30;99.90;;;;;;6067830;23;20393;-75
2023/05/10 09:27:30;;;;;;;31.50;16.50;;;14.60;99.90;;;;;;6114684;23;20371;-77
2023/05/10 09:29:57;;;;;;;28.37;13.17;;;14.50;99.90;;;;;;6087893;23;20410;-76
2023/05/10 09:32:39;;;;;;;31.67;16.20;;;14.40;99.90;;;;;;6091683;23;20172;-77
2023/05/10 09:35:17;;;;;;;20.87;14.10;;;14.50;99.90;;;;;;6091149;23;20382;-77
2023/05/10 09:37:46;;;;;;;28.63;14.23;;;14.20;99.90;;;;;;6118260;23;20377;-76
2023/05/10 09:40:14;;;;;;;22.67;12.00;;;14.00;99.90;;;;;;6116631;23;20397;-76
2023/05/10 09:43:00;;;;;;;29.67;15.20;;;13.70;99.90;;;;;;6117369;23;20420;-76
2023/05/10 09:45:28;;;;;;;33.67;16.90;;;13.50;99.90;;;;;;6093314;23;20387;-76
2023/05/10 09:47:54;;;;;;;30.33;15.60;;;13.40;99.90;;;;;;6089596;23;20814;-77
2023/05/10 09:50:21;;;;;;;40.47;18.63;;;13.20;99.90;;;;;;6116057;23;20387;-76
2023/05/10 09:52:55;;;;;;;54.03;20.30;;;13.10;99.90;;;;;;6113895;23;20393;-74
2023/05/10 09:55:23;;;;;;;51.90;20.83;;;12.90;99.90;;;;;;6117692;23;20357;-76
2023/05/10 09:57:59;;;;;;;56.80;22.37;;;13.00;99.90;;;;;;6117605;23;20353;-76
2023/05/10 10:00:25;;;;;;;76.33;26.20;;;12.90;99.90;;;;;;6089729;23;20419;-77
2023/05/10 10:02:59;;;;;;;78.60;26.50;;;13.20;99.90;;;;;;6113923;23;20431;-76
2023/05/10 10:05:35;;;;;;;64.37;25.13;;;13.50;99.90;;;;;;6090082;23;20453;-76
2023/05/10 10:08:04;;;;;;;59.73;20.60;;;13.60;99.90;;;;;;6113549;23;20384;-73
2023/05/10 10:10:31;;;;;;;43.63;19.20;;;13.80;99.90;;;;;;6112837;23;20419;-76
2023/05/10 10:12:57;;;;;;;46.43;20.67;;;14.20;99.90;;;;;;6116148;23;20676;-76
2023/05/10 10:15:23;;;;;;;52.70;20.50;;;14.00;99.90;;;;;;6093410;23;20422;-77
2023/05/10 10:17:50;;;;;;;37.33;17.80;;;14.00;99.90;;;;;;6094821;23;20178;-76
2023/05/10 10:20:17;;;;;;;49.17;18.73;;;14.00;99.90;;;;;;6119545;23;20802;-76
2023/05/10 10:22:46;;;;;;;102.03;20.70;;;14.20;99.90;;;;;;6098311;23;20417;-77
2023/05/10 10:25:14;;;;;;;62.67;20.00;;;14.40;99.90;;;;;;6119062;23;20368;-75
2023/05/10 10:27:55;;;;;;;26.57;13.70;;;14.50;99.90;;;;;;6118939;23;20361;-76
2023/05/10 10:30:45;;;;;;;21.57;13.20;;;14.30;99.90;;;;;;6098266;23;20432;-77
2023/05/10 10:33:40;;;;;;;37.10;12.53;;;14.50;99.90;;;;;;6094844;23;20380;-76
2023/05/10 10:36:06;;;;;;;16.00;10.87;;;14.70;99.90;;;;;;6121432;23;20357;-77
2023/05/10 10:38:47;;;;;;;14.93;11.40;;;15.00;99.90;;;;;;6121097;23;20368;-76
2023/05/10 10:41:28;;;;;;;16.50;11.80;;;15.40;99.90;;;;;;6121579;23;20376;-76
2023/05/10 10:44:27;;;;;;;14.07;9.53;;;16.10;99.90;;;;;;6121802;23;20400;-76
2023/05/10 10:47:11;;;;;;;12.17;9.50;;;16.50;99.90;;;;;;6075676;23;20465;-77
2023/05/10 10:49:57;;;;;;;13.73;10.40;;;16.50;99.90;;;;;;6097905;23;20586;-77
2023/05/10 10:52:30;;;;;;;11.43;8.83;;;16.70;99.90;;;;;;6055187;23;20382;-77
2023/05/10 10:55:02;;;;;;;14.37;9.87;;;16.70;99.90;;;;;;6123141;23;20369;-77
2023/05/10 10:57:31;;;;;;;12.43;9.93;;;17.20;99.90;;;;;;6097360;23;20379;-77
2023/05/10 11:00:19;;;;;;;13.47;10.70;;;17.60;99.90;;;;;;6121798;23;20394;-77
2023/05/10 11:02:51;;;;;;;16.83;12.37;;;18.00;99.90;;;;;;6096326;23;20418;-77
2023/05/10 11:05:35;;;;;;;11.50;9.70;;;18.40;99.90;;;;;;6119713;23;20379;-77
2023/05/10 11:08:07;;;;;;;13.20;9.87;;;18.70;99.90;;;;;;6095164;23;20447;-77
2023/05/10 11:10:34;;;;;;;15.10;9.33;;;19.10;99.90;;;;;;6119390;23;20400;-77
2023/05/10 11:13:05;;;;;;;8.33;7.33;;;19.10;99.90;;;;;;6120012;23;20368;-78
2023/05/10 11:15:31;;;;;;;8.00;6.90;;;19.10;99.90;;;;;;6071401;23;20452;-77
2023/05/10 11:17:57;;;;;;;8.50;7.53;;;19.00;92.50;;;;;;6120472;23;20801;-77
2023/05/10 11:20:33;;;;;;;12.60;10.00;;;18.80;99.90;;;;;;6072326;23;20415;-76
2023/05/10 11:23:12;;;;;;;8.50;6.63;;;19.10;99.90;;;;;;6097373;23;20211;-77
2023/05/10 11:25:45;;;;;;;7.67;5.70;;;19.30;99.90;;;;;;6096901;23;20372;-76
2023/05/10 11:28:12;;;;;;;6.20;5.60;;;19.10;93.30;;;;;;6098079;23;20439;-77
2023/05/10 11:30:43;;;;;;;5.40;4.77;;;18.90;93.40;;;;;;6097193;23;20428;-77
2023/05/10 11:33:10;;;;;;;4.90;4.40;;;18.70;97.70;;;;;;6123376;23;20440;-76
2023/05/10 11:35:39;;;;;;;6.10;4.30;;;18.90;99.90;;;;;;6091373;23;20365;-76
2023/05/10 11:38:10;;;;;;;5.47;4.53;;;19.00;95.00;;;;;;6115217;23;20384;-77
2023/05/10 11:40:37;;;;;;;6.20;4.70;;;18.90;97.50;;;;;;6088702;23;20455;-76
2023/05/10 11:43:03;;;;;;;6.17;5.47;;;18.90;99.90;;;;;;6094639;23;20468;-76
2023/05/10 11:45:31;;;;;;;5.57;4.37;;;18.80;94.00;;;;;;6072666;23;20385;-77
2023/05/10 11:47:58;;;;;;;4.80;4.03;;;18.60;98.70;;;;;;6072433;23;20381;-75
2023/05/10 11:50:25;;;;;;;4.67;3.97;;;18.50;99.90;;;;;;6118429;23;20434;-77
2023/05/10 11:52:52;;;;;;;3.27;2.93;;;18.30;95.10;;;;;;6091651;23;20384;-75
2023/05/10 11:55:18;;;;;;;5.77;3.87;;;18.10;91.90;;;;;;6068233;23;20659;-76
2023/05/10 11:57:45;;;;;;;3.53;3.10;;;18.10;93.00;;;;;;6118437;23;20398;-77
2023/05/10 12:00:12;;;;;;;3.83;3.43;;;18.00;91.80;;;;;;6096134;23;20176;-77
2023/05/10 12:02:38;;;;;;;7.20;5.67;;;17.90;93.90;;;;;;6116078;23;20431;-77
2023/05/10 12:05:05;;;;;;;3.83;3.53;;;18.30;93.80;;;;;;6090933;23;20504;-76
2023/05/10 12:07:31;;;;;;;6.10;3.40;;;18.60;97.20;;;;;;6094343;23;20400;-76
2023/05/10 12:10:08;;;;;;;4.13;3.73;;;18.80;91.90;;;;;;6116347;23;20407;-74
2023/05/10 12:12:49;;;;;;;5.00;3.93;;;18.90;86.60;;;;;;6114089;23;20140;-74
2023/05/10 12:15:22;;;;;;;4.20;3.53;;;18.70;85.10;;;;;;6091329;23;20447;-76
2023/05/10 12:17:49;;;;;;;4.77;3.40;;;18.60;86.30;;;;;;6118473;23;20451;-77
2023/05/10 12:20:23;;;;;;;3.30;2.80;;;18.60;89.50;;;;;;6118283;23;20415;-77
2023/05/10 12:23:02;;;;;;;5.33;2.60;;;18.50;83.70;;;;;;6092636;23;20439;-76
2023/05/10 12:25:33;;;;;;;3.30;3.00;;;18.50;89.80;;;;;;6119457;23;20432;-76
2023/05/10 12:28:03;;;;;;;3.37;2.70;;;18.70;79.90;;;;;;6092530;23;20373;-76
2023/05/10 12:30:31;;;;;;;3.47;3.13;;;18.90;85.80;;;;;;6117442;23;20392;-77
2023/05/10 12:33:01;;;;;;;2.90;2.70;;;19.10;75.10;;;;;;6072990;23;20388;-78
2023/05/10 12:35:31;;;;;;;3.53;2.60;;;19.40;77.60;;;;;;6117606;23;20361;-77
2023/05/10 12:37:56;;;;;;;3.50;2.97;;;19.70;76.40;;;;;;6092539;23;20379;-77
2023/05/10 12:40:22;;;;;;;5.73;2.97;;;19.90;72.00;;;;;;6093006;23;20420;-79
2023/05/10 12:42:48;;;;;;;2.77;2.57;;;19.90;71.70;;;;;;6091548;23;20165;-75